fechar
X Fechar
X Fechar

X Fechar
foto
Salvar nos Favoritos

X Fechar
foto
Clique e saiba mais
Clique e saiba mais
Clique e saiba mais
Clique e saiba mais
Clique e saiba mais
Clique e saiba mais
Clique e saiba mais

América Sports

Capacete Companhia

RM - Motocross Racing

Edgers Racing

RX Graphics

JPS Racing

Ohlins

DLua Racing

Toro Sports

Clique e saiba mais

> Competição > Mundial de Motocross

9ª etapa - Talavera de la Reina - Espanha - Classificatórias
Publicado em: 28/05/2016

Tim Gajser e Dylan Ferrandis dominam classificatórias na Espanha
Redação MotoX.com.br: Lucidio Arruda - Fotos: Max Zanzani / Youthstream


Largada MXGP

Uma breve, mas forte chuva deu o toque final na preparação do circuito de Talavera de la Reina, Espanha, para as classificatórias deste sábado. Com o terreno bem gradeado a mistura resultou num solo mais macio que o de costume (para a região) e pontos lisos ao lado de canaletas profundas. Nestas condições nem Tim Gajser, na MXGP, nem Dylan Ferrandis, na MX2, tiveram dificuldades para dominar a corrida de hoje, que vale a posição de escolha para o gate de domingo.

MXGP


Tim Gajser

O novato sensação e líder na pontuação deu uma mostra certeira de sua velocidade na classificatória. Não perdeu tempo para superar Max Nagl logo após a primeira curva e navegou só até a bandeirada. Com o alemão na segunda posição e o russo Evgeny Bobryshev em terceiro, o principal fato do início da corrida foi o enrosco provocado pela parada repentina de Shaun Simpson numa saída de curva. O britânico foi acertado por Romain Febvre, que por sua vez foi vítima de Gautier Paulin. Na confusão o piloto da Yamaha ainda foi atingido por Antonio Cairoli, que se livrou de perder tempo no bolo.

Não sei se a corrente de Simpson foi a causa do acidente ou consequência do choque da moto de Febvre, o fato é que Simpson voltou aos boxes empurrando a moto com a corrente de transmissão pendurada, Paulin voltou à corrida e Febvre abandonou com dores no braço. Ainda não foi informada a situação do atual campeão para as corridas principais.


Max Nagl

Mais à frente, enquanto Gajser comandava, Valentin Guillod herdou a quarta posição graças à queda de Jose Butron. Clement Desalle assumiu o quinto posto ao superar Jake Nicholls na sétima volta. O mesmo Nicholls cederia a sexta posição para Cairoli na volta final.

MX2


Dylan Ferrandis

Dylan Ferrandis venceu a classificatória pela segunda vez no ano. Isso significa também que Jeffrey Herlings perdeu a classificatória pela segunda vez em 2016. Enquanto o francês disparou na liderança desde o início, o holandês não acertou a largada e começou a corrida fora dos 15 ou 20 primeiros.

Benoit Paturel segurou o segundo posto contra Pauls Jonass durante nove voltas, até perder o lugar para o piloto da Letônia. Na volta final Herlings chegou e tomou a terceira posição de Paturel, mas se atrapalhou com um retardatário a poucas curvas da chegada e o francês recuperou o segundo posto.


Benoit Paturel

Aleksandr Tonkov ficou em quinto seguido do rápido e desconhecido italiano Michele Cervellin. Destaque também para o russo Vsevolod Brylyakov que ocupou a quinta posição até cair na última volta.

Neste domingo você pode acompanhar a cronometragem e resultados ao vivo aqui no MotoX;

Link da Cronometragem e Resultados: https://www.motox.com.br/liveresults/mundialmx/

Cronograma (horários de Brasília)

Domingo 28 de Maio
03:40 - EMX 300 Race 2
04:45 - EMX 125 race 2
06:25 - EMX 250 Race 2
08:00 - MX2 Race 1
09:00 - MXGP Race 1
11:00 - MX2 Race 2
12:00 - MXGP Race 2

Vídeos





Resultados

P. # MXGP Nat. Moto V Dif. Gap M.V. a V. Speed
1 243 Gajser, Tim SLO Hon 12 25:26.125 0:00.000 1:55.774 5 50.3
2 12 Nagl, Maximilian GER Hus 12 0:08.939 0:08.939 1:55.774 5 50.3
3 777 Bobryshev, Evgeny RUS Hon 12 0:15.887 0:06.948 1:56.949 5 49.8
4 92 Guillod, Valentin SUI Yam 12 0:16.187 0:00.300 1:56.581 4 50
5 25 Desalle, Clement BEL Kaw 12 0:21.306 0:05.119 1:56.609 7 50
6 222 Cairoli, Antonio ITA KTM 12 0:22.984 0:01.678 1:56.954 7 49.8
7 45 Nicholls, Jake GBR Hus 12 0:23.310 0:00.326 1:57.854 10 49.4
8 21 Paulin, Gautier FRA Hon 12 0:25.113 0:01.803 1:55.633 12 50.4
9 89 Van Horebeek, Jeremy BEL Yam 12 0:26.777 0:01.664 1:57.116 10 49.7
10 259 Coldenhoff, Glenn NED KTM 12 0:33.230 0:06.453 1:57.386 7 49.6
11 911 Tixier, Jordi FRA Kaw 12 0:45.397 0:12.167 1:58.722 4 49.1
12 7 Leok, Tanel EST KTM 12 0:49.907 0:04.510 1:58.216 4 49.3
13 100 Searle, Tommy GBR Kaw 12 0:56.998 0:07.091 1:57.665 10 49.5
14 17 Butron, Jose ESP KTM 12 1:01.083 0:04.085 1:58.805 2 49
15 149 Ullrich, Dennis GER KTM 12 1:03.413 0:02.330 2:00.223 4 48.5
16 920 Valentin, Ander ESP Kaw 12 1:04.718 0:01.305 2:00.583 11 48.3
17 77 Lupino, Alessandro ITA Hon 12 1:05.029 0:00.311 1:59.665 5 48.7
18 32 Potisek, Milko FRA Yam 12 1:07.336 0:02.307 2:00.123 10 48.5
19 999 Goncalves, Rui POR Hus 12 1:10.651 0:03.315 2:00.452 7 48.4
20 22 Strijbos, Kevin BEL Suz 12 1:20.702 0:10.051 1:59.180 5 48.9
21 201 Soubeyras, Cedric FRA Yam 12 1:29.055 0:08.353 2:01.280 4 48
22 430 Malin, Valtteri FIN KTM 12 1:30.929 0:01.874 2:01.483 5 48
23 151 Kullas, Harri EST KTM 12 1:31.749 0:00.820 2:01.371 9 48
24 156 Heidecke, Angus GER KTM 12 1:32.840 0:01.091 2:01.847 11 47.8
25 221 Ratsep, Priit EST Hon 12 1:35.782 0:02.942 2:00.701 4 48.3
26 48 Irt, Peter SLO Yam 12 1:57.980 0:22.198 2:02.667 3 47.5
27 153 Maddii, Marco ITA Hus 12 2:08.963 0:10.983 2:03.626 7 47.1
28 23 Charlier, Christophe FRA Hus 8 4 laps 4 laps 1:58.368 4 49.2
29 400 Yamamoto, Kei JPN Hon 6 6 laps 2 laps 2:02.449 5 47.6
30 24 Simpson, Shaun GBR KTM 0 12 laps 6 laps 0:00.000   0
31 461 Febvre, Romain FRA Yam 0 12 laps 0:00.349 0:00.000   0
32 348 Cros, Joan ESP KTM 5 7 laps -5 laps 2:05.421 2 46.4

P. # MX2 Nat. Bike laps Dif. Gap M.V. a V. Speed
1 4 Ferrandis, Dylan FRA Kaw 11 24:22.900 0:00.000 2:00.323 5 48.4
2 41 Jonass, Pauls LAT KTM 11 0:02.563 0:02.563 2:00.738 8 48.3
3 6 Paturel, Benoit FRA Yam 11 0:03.117 0:00.554 2:00.937 5 48.2
4 84 Herlings, Jeffrey NED KTM 11 0:03.584 0:00.467 1:57.797 9 49.5
5 59 Tonkov, Aleksandr RUS Yam 11 0:22.840 0:19.256 2:01.535 5 47.9
6 747 Cervellin, Michele ITA Hon 11 0:30.015 0:07.175 2:02.009 4 47.7
7 161 Östlund, Alvin SWE Yam 11 0:33.187 0:03.172 2:02.787 2 47.4
8 189 Bogers, Brian NED KTM 11 0:33.568 0:00.381 2:02.912 10 47.4
9 811 Sterry, Adam GBR KTM 11 0:39.970 0:06.402 2:02.096 2 47.7
10 91 Seewer, Jeremy SUI Suz 11 0:41.229 0:01.259 2:00.156 7 48.5
11 99 Anstie, Max GBR Hus 11 0:44.882 0:03.653 2:02.734 9 47.5
12 128 Monticelli, Ivo ITA KTM 11 0:52.839 0:07.957 2:03.381 6 47.2
13 321 Bernardini, Samuele ITA TM 11 0:53.964 0:01.125 2:03.118 7 47.3
14 338 Herbreteau, David FRA Hon 11 0:57.470 0:03.506 2:03.685 6 47.1
15 951 Furlotti, Simone ITA Yam 11 0:59.115 0:01.645 2:03.704 11 47.1
16 29 Jacobi, Henry GER Hon 11 1:00.116 0:01.001 2:03.570 11 47.1
17 66 Larranaga Olano, Iker ESP KTM 11 1:01.750 0:01.634 2:02.545 9 47.5
18 18 Brylyakov, Vsevolod RUS Kaw 11 1:03.734 0:01.984 2:01.771 5 47.8
19 88 van der Vlist, Freek NED Kaw 11 1:12.449 0:08.715 2:04.510 2 46.8
20 10 Vlaanderen, Calvin NED KTM 11 1:12.706 0:00.257 2:04.176 10 46.9
21 95 Justs, Roberts LAT KTM 11 1:20.549 0:07.843 2:05.207 6 46.5
22 101 Zaragoza, Jorge ESP Hon 11 1:23.086 0:02.537 2:04.986 6 46.6
23 991 Lapucci, Nicholas ITA Hus 11 1:35.804 0:12.718 2:06.171 11 46.2
24 164 Alix, Dakota USA Yam 11 1:39.042 0:03.238 2:07.071 9 45.8
25 426 Mewse, Conrad GBR Hus 11 1:45.951 0:06.909 2:06.660 9 46
26 251 Getteman, Jens BEL KTM 11 1:52.093 0:06.142 2:04.485 8 46.8
27 97 Ivanov, Maykal Grisha BUL KTM 11 1:52.991 0:00.898 2:07.221 9 45.8
28 40 Zecchina, Simone ITA Yam 11 2:08.968 0:15.977 2:07.370 2 45.7
29 969 Fernandez Macanas, Carlos ESP Kaw 10 1 lap 1 lap 2:09.581 7 45
30 142 Petrov, Ivan BUL KTM 10 1 lap 0:01.394 2:08.229 6 45.4
31 14 Valente, Christopher SUI KTM 10 1 lap 0:04.800 2:07.575 6 45.7
32 474 Boulard, Bryan BEL Kaw 10 1 lap 0:02.375 2:07.966 1 45.5
33 490 Mataro Vilar, Francesc ESP Yam 10 1 lap 0:10.580 2:06.559 10 46
34 79 Corneth, Jaap NED Yam 10 1 lap 1:32.965 2:08.056 3 45.5
35 152 Petrov, Petar BUL Kaw 8 3 laps 2 laps 2:02.476 5 47.6
36 280 Sanchez Cano, Sergio ESP KTM 6 5 laps 2 laps 2:14.757 3 43.2
37 172 Van doninck, Brent BEL Yam 3 8 laps 3 laps 2:17.955 3 42.2








Vídeos MotoX Connect



Acompanhe o MotoX no Facebook

Curso MotoX
Brasil Racing
JPS Racing

© 2000 - 2017 MotoX MX1 Internet